Fort Mchenry — WD19336 — position and weather

sailwx.info

Track history (hours):
 
Tides and Currents Weather Stations Pressure Air Temp Water Temp Dewpoint Dewpoint Depression Visibility Wind Speed Wind Dir Waves Ship Positions

Fort Mchenry

Last reported at 2018-Jun-25 05:30 UTC. Time now 2018-Jun-25 05:44 UTC.
Position N 40°40' W 074°00'.

Length 28 m; draft 4 m.

Type: Towing. MMSI: 369131000.

Date/timePositionNaut miles runAvg speedWind from/ knotsBaromVisibWave heightAir tempDewpointWater temp
2018-Jun-25 05:30N 40°40' W 074°00'0 0.0
2018-Jun-25 05:01N 40°40' W 074°00'0 0.0
2018-Jun-25 04:30N 40°40' W 074°00'0 0.0
2018-Jun-25 04:00N 40°40' W 074°00'0 0.0
2018-Jun-25 03:30N 40°40' W 074°00'0 0.0
2018-Jun-25 03:00N 40°40' W 074°00'0 0.0
2018-Jun-25 02:31N 40°40' W 074°00'0 0.0
2018-Jun-25 02:00N 40°40' W 074°00'0 0.0
2018-Jun-25 01:30N 40°40' W 074°00'0 0.0
2018-Jun-25 01:00N 40°40' W 074°00'0 0.0
2018-Jun-25 00:30N 40°40' W 074°00'0 0.0
2018-Jun-25 00:00N 40°40' W 074°00'0 0.0
2018-Jun-24 23:30N 40°40' W 074°00'0 0.0
2018-Jun-24 23:00N 40°40' W 074°00'0 0.0
2018-Jun-24 22:30N 40°40' W 074°00'0 0.0
2018-Jun-24 22:01N 40°40' W 074°00'0 0.0
2018-Jun-24 21:30N 40°40' W 074°00'0 0.0
2018-Jun-24 21:00N 40°40' W 074°00'0 0.0
2018-Jun-24 20:30N 40°40' W 074°00'0 0.0
2018-Jun-24 20:00N 40°40' W 074°00'0 0.0
2018-Jun-24 19:30N 40°40' W 074°00'0 0.0
2018-Jun-24 19:00N 40°40' W 074°00'0 0.0
2018-Jun-24 18:31N 40°40' W 074°00'0 0.0
2018-Jun-24 18:00N 40°40' W 074°00'0 0.6
2018-Jun-24 17:30N 40°40' W 074°00'0 0.0
2018-Jun-24 17:00N 40°40' W 074°00'0 0.0
2018-Jun-24 16:30N 40°40' W 074°00'0 0.9
2018-Jun-24 16:01N 40°40' W 074°01'4 7.0
2018-Jun-24 15:30N 40°39' W 074°05'3 4.8
2018-Jun-24 14:58N 40°40' W 074°08'1 2.6
2018-Jun-24 14:30N 40°41' W 074°09'0 0.0
2018-Jun-24 14:00N 40°41' W 074°09'0 0.0
2018-Jun-24 13:30N 40°41' W 074°09'0 0.0
2018-Jun-24 12:59N 40°41' W 074°09'0 0.0
2018-Jun-24 12:30N 40°41' W 074°09'0 0.0
2018-Jun-24 12:00N 40°41' W 074°09'0 0.0
2018-Jun-24 11:29N 40°41' W 074°09'0 0.0
2018-Jun-24 10:22N 40°41' W 074°09'0 0.0
2018-Jun-24 09:59N 40°41' W 074°09'0 0.0
2018-Jun-24 09:11N 40°41' W 074°09'0 0.0
2018-Jun-24 08:58N 40°41' W 074°09'0 0.0
2018-Jun-24 07:43N 40°41' W 074°09'0 1.5
2018-Jun-24 07:30N 40°41' W 074°09'0 0.1
2018-Jun-24 07:00N 40°41' W 074°09'0 0.6
2018-Jun-24 06:26N 40°41' W 074°10'0 0.0
2018-Jun-24 06:00N 40°41' W 074°10'0 0.0
2018-Jun-24 05:30N 40°41' W 074°10'0 0.0
2018-Jun-24 05:00N 40°41' W 074°10'0 0.0
2018-Jun-24 04:30N 40°41' W 074°10'0 0.0
2018-Jun-24 04:00N 40°41' W 074°10'0 0.0
2018-Jun-24 03:29N 40°41' W 074°10'0 0.0
2018-Jun-24 03:00N 40°41' W 074°10'0 0.0
2018-Jun-24 02:30N 40°41' W 074°10'0 0.0
2018-Jun-24 02:00N 40°41' W 074°10'0 0.0
2018-Jun-24 01:30N 40°41' W 074°10'0 0.3
2018-Jun-24 00:59N 40°41' W 074°09'2 5.2
2018-Jun-24 00:30N 40°39' W 074°09'2 3.8
2018-Jun-24 00:00N 40°39' W 074°06'1 2.6
2018-Jun-23 23:30N 40°39' W 074°05'4 7.4
2018-Jun-23 23:00N 40°40' W 074°00'0 0.0
2018-Jun-23 22:30N 40°40' W 074°00'0 0.0
2018-Jun-23 22:00N 40°40' W 074°00'0 0.0
2018-Jun-23 21:31N 40°40' W 074°00'0 0.0
2018-Jun-23 21:00N 40°40' W 074°00'0 0.0
2018-Jun-23 20:30N 40°40' W 074°00'0 0.0
2018-Jun-23 20:00N 40°40' W 074°00'0 0.0
2018-Jun-23 19:31N 40°40' W 074°00'0 0.0
2018-Jun-23 19:01N 40°40' W 074°00'0 0.0
2018-Jun-23 18:30N 40°40' W 074°00'0 0.1
2018-Jun-23 18:00N 40°40' W 074°00'2 4.4
2018-Jun-23 17:30N 40°40' W 074°03'1 2.2
2018-Jun-23 17:00N 40°40' W 074°04'1 1.5
2018-Jun-23 16:30N 40°40' W 074°05'0 0.0
2018-Jun-23 16:00N 40°40' W 074°05'0 0.0
2018-Jun-23 15:30N 40°40' W 074°05'0 0.0
2018-Jun-23 15:00N 40°40' W 074°05'0 0.0
2018-Jun-23 14:30N 40°40' W 074°05'0 0.0
2018-Jun-23 14:01N 40°40' W 074°05'0 0.0
2018-Jun-23 13:30N 40°40' W 074°05'0 0.0
2018-Jun-23 13:00N 40°40' W 074°05'0 0.0
2018-Jun-23 12:30N 40°40' W 074°05'0 0.9
2018-Jun-23 12:01N 40°40' W 074°05'1 1.3
2018-Jun-23 11:31N 40°40' W 074°04'2 3.8
2018-Jun-23 11:00N 40°39' W 074°06'1 1.2
2018-Jun-23 10:30N 40°39' W 074°07'0 0.0
2018-Jun-23 09:41N 40°39' W 074°07'0 0.0
2018-Jun-23 09:28N 40°39' W 074°07'0 0.0
2018-Jun-23 08:56N 40°39' W 074°07'0 0.0
2018-Jun-23 08:27N 40°39' W 074°07'0 0.0
2018-Jun-23 08:00N 40°39' W 074°07'0 0.0
2018-Jun-23 07:16N 40°39' W 074°07'0 0.0
2018-Jun-23 07:00N 40°39' W 074°07'0 0.0
2018-Jun-23 06:06N 40°39' W 074°07'0 0.0
2018-Jun-23 05:55N 40°39' W 074°07'0 0.0
2018-Jun-23 04:33N 40°39' W 074°07'0 0.0
2018-Jun-23 04:24N 40°39' W 074°07'1 1.4
2018-Jun-23 04:01N 40°39' W 074°06'0 0.1
2018-Jun-23 03:30N 40°39' W 074°06'1 2.8
2018-Jun-23 03:00N 40°39' W 074°05'3 6.5
2018-Jun-23 02:30N 40°40' W 074°00'0 0.1
2018-Jun-23 02:00N 40°40' W 074°00'0 0.0
2018-Jun-23 01:30N 40°40' W 074°00'0 0.0
2018-Jun-23 01:00N 40°40' W 074°00'0 0.0
2018-Jun-23 00:31N 40°40' W 074°00'0 0.0
2018-Jun-23 00:00N 40°40' W 074°00'0 0.0
2018-Jun-22 23:30N 40°40' W 074°00'0 0.0
2018-Jun-22 23:01N 40°40' W 074°00'0 0.0
2018-Jun-22 22:30N 40°40' W 074°00'0 0.0
2018-Jun-22 22:00N 40°40' W 074°00'0 0.0
2018-Jun-22 21:30N 40°40' W 074°00'0 0.0
2018-Jun-22 21:01N 40°40' W 074°00'0 0.0
2018-Jun-22 20:30N 40°40' W 074°00'0 0.0
2018-Jun-22 20:00N 40°40' W 074°00'0 0.0
2018-Jun-22 19:30N 40°40' W 074°00'0 0.7
2018-Jun-22 19:00N 40°40' W 074°01'2 3.4
2018-Jun-22 18:31N 40°41' W 074°03'1 2.3
2018-Jun-22 18:00N 40°40' W 074°04'1 1.5
2018-Jun-22 17:31N 40°40' W 074°05'0 0.0
2018-Jun-22 17:00N 40°40' W 074°05'0 0.0
2018-Jun-22 16:27N 40°40' W 074°05'0 0.0
2018-Jun-22 15:59N 40°40' W 074°05'0 0.0
2018-Jun-22 15:30N 40°40' W 074°05'0 0.0
2018-Jun-22 15:00N 40°40' W 074°05'0 0.0
2018-Jun-22 14:30N 40°40' W 074°05'1 1.5
2018-Jun-22 14:00N 40°40' W 074°04'0 0.4
2018-Jun-22 13:30N 40°40' W 074°04'2 4.1
2018-Jun-22 13:00N 40°39' W 074°06'1 1.1
2018-Jun-22 12:29N 40°39' W 074°07'0 0.0
2018-Jun-22 11:59N 40°39' W 074°07'0 0.0
2018-Jun-22 11:30N 40°39' W 074°07'0 0.0
2018-Jun-22 11:00N 40°39' W 074°07'0 0.0
2018-Jun-22 10:22N 40°39' W 074°07'0 0.0
2018-Jun-22 09:51N 40°39' W 074°07'0 0.0
2018-Jun-22 09:22N 40°39' W 074°07'0 0.0
2018-Jun-22 08:58N 40°39' W 074°07'0 0.0
2018-Jun-22 08:30N 40°39' W 074°07'0 0.0
2018-Jun-22 07:48N 40°39' W 074°07'0 0.0
2018-Jun-22 07:17N 40°39' W 074°07'0 0.0
2018-Jun-22 06:59N 40°39' W 074°07'0 0.0
2018-Jun-22 06:27N 40°39' W 074°07'0 0.0
2018-Jun-22 06:00N 40°39' W 074°07'0 0.0
2018-Jun-22 05:30N 40°39' W 074°07'0 0.0
2018-Jun-22 04:36N 40°39' W 074°07'0 0.0
2018-Jun-22 04:28N 40°39' W 074°07'2 3.4
2018-Jun-22 04:00N 40°39' W 074°05'2 3.3
2018-Jun-22 03:30N 40°38' W 074°04'0 0.9
2018-Jun-22 03:00N 40°39' W 074°04'2 3.8
2018-Jun-22 02:31N 40°39' W 074°06'4 7.3
2018-Jun-22 02:00N 40°39' W 074°02'1 2.6
2018-Jun-22 01:30N 40°40' W 074°00'0 0.0
2018-Jun-22 01:00N 40°40' W 074°00'0 0.0
2018-Jun-22 00:30N 40°40' W 074°00'0 0.0
2018-Jun-22 00:00N 40°40' W 074°00'0 0.0
2018-Jun-21 23:30N 40°40' W 074°00'0 0.0
2018-Jun-21 23:00N 40°40' W 074°00'2 3.5
2018-Jun-21 22:30N 40°41' W 074°02'0 0.5
2018-Jun-21 22:00N 40°41' W 074°03'3 5.2
2018-Jun-21 21:30N 40°43' W 074°02'2 4.4
2018-Jun-21 21:00N 40°45' W 074°01'1 1.5
2018-Jun-21 20:20N 40°46' W 073°60'0 0.0
2018-Jun-21 19:57N 40°46' W 073°60'0 0.0
2018-Jun-21 19:21N 40°46' W 073°60'0 0.0
2018-Jun-21 17:57N 40°46' W 073°60'0 0.1
2018-Jun-21 15:36N 40°46' W 074°00'0 0.7
2018-Jun-21 15:30N 40°46' W 074°00'2 4.4
2018-Jun-21 15:00N 40°44' W 074°01'2 4.1
2018-Jun-21 14:31N 40°42' W 074°02'2 4.3
2018-Jun-21 14:01N 40°40' W 074°03'3 6.0
2018-Jun-21 13:31N 40°39' W 074°06'0 0.6
2018-Jun-21 13:00N 40°39' W 074°06'0 0.5
2018-Jun-21 12:30N 40°39' W 074°06'0 0.0
2018-Jun-21 12:00N 40°39' W 074°06'0 0.0
2018-Jun-21 11:30N 40°39' W 074°06'0 0.0
2018-Jun-21 11:00N 40°39' W 074°06'0 0.0
2018-Jun-21 10:30N 40°39' W 074°06'0 0.0
2018-Jun-21 10:00N 40°39' W 074°06'0 0.0
2018-Jun-21 09:30N 40°39' W 074°06'0 0.0
2018-Jun-21 08:52N 40°39' W 074°06'0 0.0
2018-Jun-21 08:25N 40°39' W 074°06'0 0.0
2018-Jun-21 07:56N 40°39' W 074°06'0 0.0
2018-Jun-21 07:30N 40°39' W 074°06'2 4.5
2018-Jun-21 07:00N 40°39' W 074°03'2 4.8
2018-Jun-21 06:31N 40°40' W 074°00'0 0.0
2018-Jun-21 06:01N 40°40' W 074°00'0 0.0
2018-Jun-21 05:30N 40°40' W 074°00'0 0.0
2018-Jun-21 05:00N 40°40' W 074°00'0 0.0
2018-Jun-21 04:30N 40°40' W 074°00'0 0.0
2018-Jun-21 04:00N 40°40' W 074°00'0 0.1
2018-Jun-21 03:30N 40°40' W 074°00'2 3.2
2018-Jun-21 03:01N 40°39' W 074°02'4 7.5
2018-Jun-21 02:30N 40°39' W 074°07'2 4.7
2018-Jun-21 02:00N 40°41' W 074°09'1 0.6
2018-Jun-21 00:34N 40°41' W 074°10'0 0.0
2018-Jun-21 00:28N 40°41' W 074°10'0 0.0
2018-Jun-21 00:01N 40°41' W 074°10'0 0.0
2018-Jun-20 23:30N 40°41' W 074°10'0 0.0
2018-Jun-20 22:43N 40°41' W 074°10'0 0.0
2018-Jun-20 22:26N 40°41' W 074°10'0 0.0
2018-Jun-20 21:09N 40°41' W 074°10'0 0.0
2018-Jun-20 20:56N 40°41' W 074°10'0 0.0
2018-Jun-20 20:30N 40°41' W 074°10'1 2.8
2018-Jun-20 20:00N 40°40' W 074°09'1 2.0
2018-Jun-20 19:31N 40°39' W 074°09'2 4.2
2018-Jun-20 19:00N 40°39' W 074°06'0 0.6
2018-Jun-20 18:30N 40°39' W 074°06'1 1.6
2018-Jun-20 17:54N 40°39' W 074°07'0 0.0
2018-Jun-20 17:30N 40°39' W 074°07'0 0.0
2018-Jun-20 17:00N 40°39' W 074°07'0 0.0
2018-Jun-20 16:30N 40°39' W 074°07'0 0.0
2018-Jun-20 16:00N 40°39' W 074°07'0 0.0
2018-Jun-20 15:30N 40°39' W 074°07'4 7.5
2018-Jun-20 15:00N 40°39' W 074°02'2 3.7
2018-Jun-20 14:30N 40°40' W 074°00'0 0.0
2018-Jun-20 14:00N 40°40' W 074°00'0 0.0
2018-Jun-20 13:30N 40°40' W 074°00'0 0.0
2018-Jun-20 13:00N 40°40' W 074°00'0 0.0
2018-Jun-20 12:30N 40°40' W 074°00'0 0.0
2018-Jun-20 12:00N 40°40' W 074°00'4 7.2
2018-Jun-20 11:30N 40°39' W 074°05'3 6.5
2018-Jun-20 11:00N 40°41' W 074°08'2 4.0
2018-Jun-20 10:30N 40°42' W 074°07'1 2.7
2018-Jun-20 10:00N 40°41' W 074°08'0 0.1
2018-Jun-20 09:30N 40°41' W 074°08'0 0.1
2018-Jun-20 09:00N 40°41' W 074°08'1 1.4
2018-Jun-20 08:30N 40°40' W 074°08'3 6.0
2018-Jun-20 08:00N 40°39' W 074°11'2 0.6
2018-Jun-20 04:01N 40°36' W 074°12'2 8.6
2018-Jun-20 03:45N 40°38' W 074°11'2 8.3
2018-Jun-20 03:28N 40°40' W 074°09'1 2.3
2018-Jun-20 03:00N 40°41' W 074°09'0 0.7
2018-Jun-20 02:30N 40°40' W 074°08'2 3.1
2018-Jun-20 02:00N 40°39' W 074°09'3 5.1
2018-Jun-20 01:30N 40°39' W 074°06'2 4.4
2018-Jun-20 01:00N 40°38' W 074°03'1 1.3
2018-Jun-20 00:30N 40°39' W 074°02'2 3.5
2018-Jun-20 00:00N 40°40' W 074°00'0 0.5
2018-Jun-19 23:30N 40°40' W 074°00'0 0.1
2018-Jun-19 23:00N 40°40' W 074°00'0 0.0
2018-Jun-19 22:30N 40°40' W 074°00'0 0.7
2018-Jun-19 22:00N 40°40' W 074°01'4 9.0
2018-Jun-19 21:31N 40°39' W 074°06'1 1.6
2018-Jun-19 21:00N 40°39' W 074°07'0 0.0
2018-Jun-19 20:30N 40°39' W 074°07'0 0.0
2018-Jun-19 20:00N 40°39' W 074°07'0 0.0
2018-Jun-19 19:30N 40°39' W 074°07'0 0.0
2018-Jun-19 19:00N 40°39' W 074°07'1 1.5
2018-Jun-19 18:31N 40°39' W 074°06'2 3.5
2018-Jun-19 18:00N 40°40' W 074°05'0 0.2
2018-Jun-19 17:30N 40°40' W 074°05'0 0.3
2018-Jun-19 17:00N 40°40' W 074°05'0 0.0
2018-Jun-19 16:30N 40°40' W 074°05'1 2.1
2018-Jun-19 16:00N 40°39' W 074°05'2 4.1
2018-Jun-19 15:30N 40°38' W 074°07'0 0.0
2018-Jun-19 14:58N 40°38' W 074°07'0 0.0
2018-Jun-19 14:30N 40°38' W 074°07'0 0.0
2018-Jun-19 13:57N 40°38' W 074°07'0 0.0
2018-Jun-19 13:30N 40°38' W 074°07'0 0.0
2018-Jun-19 13:00N 40°38' W 074°07'0 0.2
2018-Jun-19 12:29N 40°39' W 074°07'1 1.2
2018-Jun-19 12:01N 40°39' W 074°06'5 9.1
2018-Jun-19 11:30N 40°41' W 074°01'1 1.7
2018-Jun-19 11:00N 40°41' W 074°00'3 6.9
2018-Jun-19 10:30N 40°40' W 074°04'1 1.1
2018-Jun-19 10:00N 40°40' W 074°05'0 0.0
2018-Jun-19 09:30N 40°40' W 074°05'0 0.0
2018-Jun-19 09:00N 40°40' W 074°05'0 0.0
2018-Jun-19 08:30N 40°40' W 074°05'2 3.3
2018-Jun-19 08:00N 40°39' W 074°06'5 9.2
2018-Jun-19 07:30N 40°38' W 074°12'2 0.8
2018-Jun-19 05:24N 40°36' W 074°12'3 6.4
2018-Jun-19 04:57N 40°39' W 074°10'3 7.9
2018-Jun-19 04:30N 40°39' W 074°06'3 5.6
2018-Jun-19 04:01N 40°41' W 074°03'1 1.1
2018-Jun-19 03:30N 40°40' W 074°03'1 1.5
2018-Jun-19 03:00N 40°40' W 074°04'1 2.6
2018-Jun-19 02:30N 40°39' W 074°05'4 8.1
2018-Jun-19 02:01N 40°39' W 074°11'0 0.1
2018-Jun-19 00:52N 40°39' W 074°10'2 6.4
2018-Jun-19 00:30N 40°39' W 074°07'3 6.6
2018-Jun-19 00:00N 40°40' W 074°03'2 4.7
2018-Jun-18 23:30N 40°40' W 074°00'0 0.0
2018-Jun-18 23:01N 40°40' W 074°00'0 0.0
2018-Jun-18 22:30N 40°40' W 074°00'0 0.0
2018-Jun-18 22:00N 40°40' W 074°00'0 0.0
2018-Jun-18 21:30N 40°40' W 074°00'0 0.0
2018-Jun-18 21:00N 40°40' W 074°00'0 0.6
2018-Jun-18 20:30N 40°40' W 074°01'1 2.4
2018-Jun-18 20:00N 40°39' W 074°02'4 7.4
2018-Jun-18 19:30N 40°39' W 074°07'2 4.9
2018-Jun-18 19:01N 40°41' W 074°09'1 1.1
2018-Jun-18 18:31N 40°40' W 074°08'3 5.2
2018-Jun-18 18:00N 40°39' W 074°05'2 4.8
2018-Jun-18 17:30N 40°41' W 074°03'2 4.4
2018-Jun-18 17:01N 40°39' W 074°05'3 5.6
2018-Jun-18 16:30N 40°39' W 074°09'3 6.3
2018-Jun-18 16:00N 40°42' W 074°07'0 0.2
2018-Jun-18 15:30N 40°42' W 074°07'0 0.0
2018-Jun-18 15:00N 40°42' W 074°07'1 2.1
2018-Jun-18 14:28N 40°42' W 074°08'0 0.0
2018-Jun-18 14:00N 40°42' W 074°08'0 0.0
2018-Jun-18 13:31N 40°42' W 074°08'0 0.0
2018-Jun-18 13:00N 40°42' W 074°08'0 0.0
2018-Jun-18 12:30N 40°42' W 074°08'0 0.9
2018-Jun-18 12:00N 40°42' W 074°09'0 0.6
2018-Jun-18 11:30N 40°42' W 074°08'3 6.4
2018-Jun-18 11:00N 40°39' W 074°09'4 7.1
2018-Jun-18 10:30N 40°39' W 074°04'3 5.7
2018-Jun-18 10:00N 40°40' W 074°01'2 3.5
2018-Jun-18 09:30N 40°39' W 074°02'5 9.8
2018-Jun-18 09:01N 40°39' W 074°09'4 8.0
2018-Jun-18 08:30N 40°42' W 074°07'0 0.7
2018-Jun-18 08:00N 40°42' W 074°07'3 5.9
2018-Jun-18 07:30N 40°39' W 074°09'2 3.5
2018-Jun-18 07:00N 40°39' W 074°07'0 0.2
2018-Jun-18 06:30N 40°39' W 074°06'1 0.7
2018-Jun-18 05:23N 40°38' W 074°07'0 0.0
2018-Jun-18 04:52N 40°38' W 074°07'0 0.0
2018-Jun-18 04:30N 40°38' W 074°07'0 0.0
2018-Jun-18 03:55N 40°38' W 074°07'3 6.8
2018-Jun-18 03:30N 40°39' W 074°04'3 5.1
2018-Jun-18 03:00N 40°40' W 074°00'0 0.3
2018-Jun-18 02:31N 40°40' W 074°01'0 0.3
2018-Jun-18 02:00N 40°40' W 074°00'0 0.3
2018-Jun-18 01:30N 40°40' W 074°01'4 7.3
2018-Jun-18 01:00N 40°39' W 074°05'0 0.3
2018-Jun-18 00:30N 40°39' W 074°05'3 6.2
2018-Jun-18 00:00N 40°40' W 074°01'1 1.4
2018-Jun-17 23:30N 40°40' W 074°00'0 0.0
2018-Jun-17 23:00N 40°40' W 074°00'0 0.9
2018-Jun-17 22:30N 40°40' W 074°01'2 3.6
2018-Jun-17 22:01N 40°40' W 074°03'0 0.0
2018-Jun-17 21:30N 40°40' W 074°03'0 0.0
2018-Jun-17 21:00N 40°40' W 074°03'0 0.4
2018-Jun-17 20:30N 40°40' W 074°03'2 3.9
2018-Jun-17 19:59N 40°40' W 074°00'0 0.0
2018-Jun-17 19:30N 40°40' W 074°00'0 0.0
2018-Jun-17 19:00N 40°40' W 074°00'0 0.0
2018-Jun-17 18:30N 40°40' W 074°00'0 0.0
2018-Jun-17 18:00N 40°40' W 074°00'0 0.0
2018-Jun-17 17:29N 40°40' W 074°00'3 5.7
2018-Jun-17 17:01N 40°39' W 074°03'4 7.9
2018-Jun-17 16:29N 40°39' W 074°09'0 0.2
2018-Jun-17 16:00N 40°39' W 074°09'2 3.3
2018-Jun-17 15:29N 40°39' W 074°07'3 7.0
2018-Jun-17 15:00N 40°40' W 074°03'0 0.2
2018-Jun-17 14:24N 40°41' W 074°03'1 1.4
2018-Jun-17 14:01N 40°40' W 074°03'2 4.2
2018-Jun-17 13:27N 40°38' W 074°04'2 4.6
2018-Jun-17 13:00N 40°40' W 074°03'1 1.1
2018-Jun-17 12:30N 40°40' W 074°04'0 0.8
2018-Jun-17 12:00N 40°40' W 074°04'0 0.2
2018-Jun-17 11:30N 40°40' W 074°04'0 0.0
2018-Jun-17 11:00N 40°40' W 074°04'0 0.0
2018-Jun-17 10:31N 40°40' W 074°04'1 1.8
2018-Jun-17 10:00N 40°39' W 074°04'2 4.6
2018-Jun-17 09:31N 40°39' W 074°07'1 1.4
2018-Jun-17 09:00N 40°39' W 074°07'0 0.0
2018-Jun-17 08:30N 40°39' W 074°07'0 0.0
2018-Jun-17 08:01N 40°39' W 074°07'0 0.0
2018-Jun-17 07:30N 40°39' W 074°07'0 0.0
2018-Jun-17 06:59N 40°39' W 074°07'2 4.7
2018-Jun-17 06:30N 40°39' W 074°04'3 6.8
2018-Jun-17 06:01N 40°40' W 074°00'0 0.6
2018-Jun-17 05:31N 40°40' W 074°01'3 6.3
2018-Jun-17 05:01N 40°38' W 074°04'0 0.6
2018-Jun-17 04:31N 40°38' W 074°04'0 0.1
2018-Jun-17 04:00N 40°38' W 074°04'0 0.1
2018-Jun-17 03:30N 40°38' W 074°04'0 0.1
2018-Jun-17 03:00N 40°38' W 074°04'0 0.4
2018-Jun-17 02:30N 40°38' W 074°04'1 2.8
2018-Jun-17 02:00N 40°40' W 074°04'1 1.4
2018-Jun-17 01:30N 40°40' W 074°04'0 0.0
2018-Jun-17 01:01N 40°40' W 074°04'0 0.0
2018-Jun-17 00:30N 40°40' W 074°04'0 0.0
2018-Jun-17 00:00N 40°40' W 074°04'0 0.1
2018-Jun-16 23:31N 40°40' W 074°04'2 4.4
2018-Jun-16 23:00N 40°39' W 074°02'1 1.4
2018-Jun-16 22:30N 40°40' W 074°01'4 8.8
2018-Jun-16 22:00N 40°39' W 074°06'3 5.9
2018-Jun-16 21:30N 40°41' W 074°09'0 0.3
2018-Jun-16 21:00N 40°41' W 074°09'1 2.4
2018-Jun-16 20:30N 40°40' W 074°09'2 3.4
2018-Jun-16 20:01N 40°39' W 074°07'3 6.7
2018-Jun-16 19:31N 40°40' W 074°03'2 4.5
2018-Jun-16 19:01N 40°41' W 074°00'2 4.2
2018-Jun-16 18:30N 40°43' W 074°01'3 0.5
2018-Jun-16 12:25N 40°46' W 074°00'1 1.9
2018-Jun-16 12:00N 40°45' W 074°01'1 1.5
2018-Jun-16 11:30N 40°45' W 074°01'1 1.2
2018-Jun-16 11:00N 40°44' W 074°01'1 1.1
2018-Jun-16 10:31N 40°44' W 074°01'2 4.0
2018-Jun-16 10:01N 40°42' W 074°02'3 5.4
2018-Jun-16 09:31N 40°39' W 074°04'3 5.2
2018-Jun-16 09:00N 40°39' W 074°07'0 0.0
2018-Jun-16 08:30N 40°39' W 074°07'2 4.9
2018-Jun-16 08:00N 40°40' W 074°04'0 0.0
2018-Jun-16 07:30N 40°40' W 074°04'0 0.0
2018-Jun-16 07:00N 40°40' W 074°04'0 0.0
2018-Jun-16 06:30N 40°40' W 074°04'0 0.0
2018-Jun-16 06:00N 40°40' W 074°04'0 0.0
2018-Jun-16 05:30N 40°40' W 074°04'0 0.0
2018-Jun-16 05:00N 40°40' W 074°04'0 0.0
2018-Jun-16 04:31N 40°40' W 074°04'0 0.0
2018-Jun-16 04:00N 40°40' W 074°04'0 0.0
2018-Jun-16 03:30N 40°40' W 074°04'0 0.0
2018-Jun-16 03:00N 40°40' W 074°04'0 0.0
2018-Jun-16 02:30N 40°40' W 074°04'0 0.0
2018-Jun-16 02:00N 40°40' W 074°04'0 0.0
2018-Jun-16 01:31N 40°40' W 074°04'2 3.2
2018-Jun-16 01:00N 40°39' W 074°03'2 3.7
2018-Jun-16 00:30N 40°40' W 074°01'1 2.5
2018-Jun-16 00:01N 40°39' W 074°02'3 6.3
2018-Jun-15 23:31N 40°39' W 074°06'2 4.7
2018-Jun-15 23:00N 40°38' W 074°09'3 5.5
2018-Jun-15 22:30N 40°37' W 074°12'1 0.9
2018-Jun-15 21:08N 40°36' W 074°12'2 8.8
2018-Jun-15 20:55N 40°38' W 074°12'3 7.9
2018-Jun-15 20:30N 40°39' W 074°08'4 7.8
2018-Jun-15 20:00N 40°39' W 074°03'2 4.5
2018-Jun-15 19:30N 40°40' W 074°00'0 0.0
2018-Jun-15 19:00N 40°40' W 074°00'0 0.0
2018-Jun-15 18:31N 40°40' W 074°00'0 0.0
2018-Jun-15 18:00N 40°40' W 074°00'0 0.0
2018-Jun-15 17:30N 40°40' W 074°00'0 0.0
2018-Jun-15 17:00N 40°40' W 074°00'0 0.0
2018-Jun-15 16:30N 40°40' W 074°00'0 0.0
2018-Jun-15 16:00N 40°40' W 074°00'0 0.0
2018-Jun-15 15:30N 40°40' W 074°00'0 0.0
2018-Jun-15 15:00N 40°40' W 074°00'0 0.0
2018-Jun-15 14:30N 40°40' W 074°00'0 0.0
2018-Jun-15 14:00N 40°40' W 074°00'0 0.0
2018-Jun-15 13:30N 40°40' W 074°00'0 0.6
2018-Jun-15 13:00N 40°40' W 074°00'3 5.6
2018-Jun-15 12:30N 40°39' W 074°04'3 6.3
2018-Jun-15 12:00N 40°39' W 074°08'3 5.1
2018-Jun-15 11:30N 40°41' W 074°09'0 0.2
2018-Jun-15 11:00N 40°41' W 074°09'0 0.0
2018-Jun-15 10:27N 40°41' W 074°09'0 0.0
2018-Jun-15 09:56N 40°41' W 074°09'0 0.0
2018-Jun-15 09:30N 40°41' W 074°09'0 0.0
2018-Jun-15 09:00N 40°41' W 074°09'0 0.0
2018-Jun-15 08:30N 40°41' W 074°09'0 0.0
2018-Jun-15 08:00N 40°41' W 074°09'0 0.4
2018-Jun-15 07:30N 40°41' W 074°09'0 0.0
2018-Jun-15 07:00N 40°41' W 074°09'0 0.0
2018-Jun-15 06:29N 40°41' W 074°09'0 0.0
2018-Jun-15 05:53N 40°41' W 074°09'  
Track history (hours):
 
Tides and Currents Weather Stations Pressure Air Temp Water Temp Dewpoint Dewpoint Depression Visibility Wind Speed Wind Dir Waves Ship Positions

Fort Mchenry

Last reported at 2018-Jun-25 05:30 UTC. Time now 2018-Jun-25 05:44 UTC.
Position N 40°40' W 074°00'.

Length 28 m; draft 4 m.

Type: Towing. MMSI: 369131000.

Date/timePositionNaut miles runAvg speedWind from/ knotsBaromVisibWave heightAir tempDewpointWater temp
2018-Jun-25 05:30N 40°40' W 074°00'0 0.0
2018-Jun-25 05:01N 40°40' W 074°00'0 0.0
2018-Jun-25 04:30N 40°40' W 074°00'0 0.0
2018-Jun-25 04:00N 40°40' W 074°00'0 0.0
2018-Jun-25 03:30N 40°40' W 074°00'0 0.0
2018-Jun-25 03:00N 40°40' W 074°00'0 0.0
2018-Jun-25 02:31N 40°40' W 074°00'0 0.0
2018-Jun-25 02:00N 40°40' W 074°00'0 0.0
2018-Jun-25 01:30N 40°40' W 074°00'0 0.0
2018-Jun-25 01:00N 40°40' W 074°00'0 0.0
2018-Jun-25 00:30N 40°40' W 074°00'0 0.0
2018-Jun-25 00:00N 40°40' W 074°00'0 0.0
2018-Jun-24 23:30N 40°40' W 074°00'0 0.0
2018-Jun-24 23:00N 40°40' W 074°00'0 0.0
2018-Jun-24 22:30N 40°40' W 074°00'0 0.0
2018-Jun-24 22:01N 40°40' W 074°00'0 0.0
2018-Jun-24 21:30N 40°40' W 074°00'0 0.0
2018-Jun-24 21:00N 40°40' W 074°00'0 0.0
2018-Jun-24 20:30N 40°40' W 074°00'0 0.0
2018-Jun-24 20:00N 40°40' W 074°00'0 0.0
2018-Jun-24 19:30N 40°40' W 074°00'0 0.0
2018-Jun-24 19:00N 40°40' W 074°00'0 0.0
2018-Jun-24 18:31N 40°40' W 074°00'0 0.0
2018-Jun-24 18:00N 40°40' W 074°00'0 0.6
2018-Jun-24 17:30N 40°40' W 074°00'0 0.0
2018-Jun-24 17:00N 40°40' W 074°00'0 0.0
2018-Jun-24 16:30N 40°40' W 074°00'0 0.9
2018-Jun-24 16:01N 40°40' W 074°01'4 7.0
2018-Jun-24 15:30N 40°39' W 074°05'3 4.8
2018-Jun-24 14:58N 40°40' W 074°08'1 2.6
2018-Jun-24 14:30N 40°41' W 074°09'0 0.0
2018-Jun-24 14:00N 40°41' W 074°09'0 0.0
2018-Jun-24 13:30N 40°41' W 074°09'0 0.0
2018-Jun-24 12:59N 40°41' W 074°09'0 0.0
2018-Jun-24 12:30N 40°41' W 074°09'0 0.0
2018-Jun-24 12:00N 40°41' W 074°09'0 0.0
2018-Jun-24 11:29N 40°41' W 074°09'0 0.0
2018-Jun-24 10:22N 40°41' W 074°09'0 0.0
2018-Jun-24 09:59N 40°41' W 074°09'0 0.0
2018-Jun-24 09:11N 40°41' W 074°09'0 0.0
2018-Jun-24 08:58N 40°41' W 074°09'0 0.0
2018-Jun-24 07:43N 40°41' W 074°09'0 1.5
2018-Jun-24 07:30N 40°41' W 074°09'0 0.1
2018-Jun-24 07:00N 40°41' W 074°09'0 0.6
2018-Jun-24 06:26N 40°41' W 074°10'0 0.0
2018-Jun-24 06:00N 40°41' W 074°10'0 0.0
2018-Jun-24 05:30N 40°41' W 074°10'0 0.0
2018-Jun-24 05:00N 40°41' W 074°10'0 0.0
2018-Jun-24 04:30N 40°41' W 074°10'0 0.0
2018-Jun-24 04:00N 40°41' W 074°10'0 0.0
2018-Jun-24 03:29N 40°41' W 074°10'0 0.0
2018-Jun-24 03:00N 40°41' W 074°10'0 0.0
2018-Jun-24 02:30N 40°41' W 074°10'0 0.0
2018-Jun-24 02:00N 40°41' W 074°10'0 0.0
2018-Jun-24 01:30N 40°41' W 074°10'0 0.3
2018-Jun-24 00:59N 40°41' W 074°09'2 5.2
2018-Jun-24 00:30N 40°39' W 074°09'2 3.8
2018-Jun-24 00:00N 40°39' W 074°06'1 2.6
2018-Jun-23 23:30N 40°39' W 074°05'4 7.4
2018-Jun-23 23:00N 40°40' W 074°00'0 0.0
2018-Jun-23 22:30N 40°40' W 074°00'0 0.0
2018-Jun-23 22:00N 40°40' W 074°00'0 0.0
2018-Jun-23 21:31N 40°40' W 074°00'0 0.0
2018-Jun-23 21:00N 40°40' W 074°00'0 0.0
2018-Jun-23 20:30N 40°40' W 074°00'0 0.0
2018-Jun-23 20:00N 40°40' W 074°00'0 0.0
2018-Jun-23 19:31N 40°40' W 074°00'0 0.0
2018-Jun-23 19:01N 40°40' W 074°00'0 0.0
2018-Jun-23 18:30N 40°40' W 074°00'0 0.1
2018-Jun-23 18:00N 40°40' W 074°00'2 4.4
2018-Jun-23 17:30N 40°40' W 074°03'1 2.2
2018-Jun-23 17:00N 40°40' W 074°04'1 1.5
2018-Jun-23 16:30N 40°40' W 074°05'0 0.0
2018-Jun-23 16:00N 40°40' W 074°05'0 0.0
2018-Jun-23 15:30N 40°40' W 074°05'0 0.0
2018-Jun-23 15:00N 40°40' W 074°05'0 0.0
2018-Jun-23 14:30N 40°40' W 074°05'0 0.0
2018-Jun-23 14:01N 40°40' W 074°05'0 0.0
2018-Jun-23 13:30N 40°40' W 074°05'0 0.0
2018-Jun-23 13:00N 40°40' W 074°05'0 0.0
2018-Jun-23 12:30N 40°40' W 074°05'0 0.9
2018-Jun-23 12:01N 40°40' W 074°05'1 1.3
2018-Jun-23 11:31N 40°40' W 074°04'2 3.8
2018-Jun-23 11:00N 40°39' W 074°06'1 1.2
2018-Jun-23 10:30N 40°39' W 074°07'0 0.0
2018-Jun-23 09:41N 40°39' W 074°07'0 0.0
2018-Jun-23 09:28N 40°39' W 074°07'0 0.0
2018-Jun-23 08:56N 40°39' W 074°07'0 0.0
2018-Jun-23 08:27N 40°39' W 074°07'0 0.0
2018-Jun-23 08:00N 40°39' W 074°07'0 0.0
2018-Jun-23 07:16N 40°39' W 074°07'0 0.0
2018-Jun-23 07:00N 40°39' W 074°07'0 0.0
2018-Jun-23 06:06N 40°39' W 074°07'0 0.0
2018-Jun-23 05:55N 40°39' W 074°07'0 0.0
2018-Jun-23 04:33N 40°39' W 074°07'0 0.0
2018-Jun-23 04:24N 40°39' W 074°07'1 1.4
2018-Jun-23 04:01N 40°39' W 074°06'0 0.1
2018-Jun-23 03:30N 40°39' W 074°06'1 2.8
2018-Jun-23 03:00N 40°39' W 074°05'3 6.5
2018-Jun-23 02:30N 40°40' W 074°00'0 0.1
2018-Jun-23 02:00N 40°40' W 074°00'0 0.0
2018-Jun-23 01:30N 40°40' W 074°00'0 0.0
2018-Jun-23 01:00N 40°40' W 074°00'0 0.0
2018-Jun-23 00:31N 40°40' W 074°00'0 0.0
2018-Jun-23 00:00N 40°40' W 074°00'0 0.0
2018-Jun-22 23:30N 40°40' W 074°00'0 0.0
2018-Jun-22 23:01N 40°40' W 074°00'0 0.0
2018-Jun-22 22:30N 40°40' W 074°00'0 0.0
2018-Jun-22 22:00N 40°40' W 074°00'0 0.0
2018-Jun-22 21:30N 40°40' W 074°00'0 0.0
2018-Jun-22 21:01N 40°40' W 074°00'0 0.0
2018-Jun-22 20:30N 40°40' W 074°00'0 0.0
2018-Jun-22 20:00N 40°40' W 074°00'0 0.0
2018-Jun-22 19:30N 40°40' W 074°00'0 0.7
2018-Jun-22 19:00N 40°40' W 074°01'2 3.4
2018-Jun-22 18:31N 40°41' W 074°03'1 2.3
2018-Jun-22 18:00N 40°40' W 074°04'1 1.5
2018-Jun-22 17:31N 40°40' W 074°05'0 0.0
2018-Jun-22 17:00N 40°40' W 074°05'0 0.0
2018-Jun-22 16:27N 40°40' W 074°05'0 0.0
2018-Jun-22 15:59N 40°40' W 074°05'0 0.0
2018-Jun-22 15:30N 40°40' W 074°05'0 0.0
2018-Jun-22 15:00N 40°40' W 074°05'0 0.0
2018-Jun-22 14:30N 40°40' W 074°05'1 1.5
2018-Jun-22 14:00N 40°40' W 074°04'0 0.4
2018-Jun-22 13:30N 40°40' W 074°04'2 4.1
2018-Jun-22 13:00N 40°39' W 074°06'1 1.1
2018-Jun-22 12:29N 40°39' W 074°07'0 0.0
2018-Jun-22 11:59N 40°39' W 074°07'0 0.0
2018-Jun-22 11:30N 40°39' W 074°07'0 0.0
2018-Jun-22 11:00N 40°39' W 074°07'0 0.0
2018-Jun-22 10:22N 40°39' W 074°07'0 0.0
2018-Jun-22 09:51N 40°39' W 074°07'0 0.0
2018-Jun-22 09:22N 40°39' W 074°07'0 0.0
2018-Jun-22 08:58N 40°39' W 074°07'0 0.0
2018-Jun-22 08:30N 40°39' W 074°07'0 0.0
2018-Jun-22 07:48N 40°39' W 074°07'0 0.0
2018-Jun-22 07:17N 40°39' W 074°07'0 0.0
2018-Jun-22 06:59N 40°39' W 074°07'0 0.0
2018-Jun-22 06:27N 40°39' W 074°07'0 0.0
2018-Jun-22 06:00N 40°39' W 074°07'0 0.0
2018-Jun-22 05:30N 40°39' W 074°07'0 0.0
2018-Jun-22 04:36N 40°39' W 074°07'0 0.0
2018-Jun-22 04:28N 40°39' W 074°07'2 3.4
2018-Jun-22 04:00N 40°39' W 074°05'2 3.3
2018-Jun-22 03:30N 40°38' W 074°04'0 0.9
2018-Jun-22 03:00N 40°39' W 074°04'2 3.8
2018-Jun-22 02:31N 40°39' W 074°06'4 7.3
2018-Jun-22 02:00N 40°39' W 074°02'1 2.6
2018-Jun-22 01:30N 40°40' W 074°00'0 0.0
2018-Jun-22 01:00N 40°40' W 074°00'0 0.0
2018-Jun-22 00:30N 40°40' W 074°00'0 0.0
2018-Jun-22 00:00N 40°40' W 074°00'0 0.0
2018-Jun-21 23:30N 40°40' W 074°00'0 0.0
2018-Jun-21 23:00N 40°40' W 074°00'2 3.5
2018-Jun-21 22:30N 40°41' W 074°02'0 0.5
2018-Jun-21 22:00N 40°41' W 074°03'3 5.2
2018-Jun-21 21:30N 40°43' W 074°02'2 4.4
2018-Jun-21 21:00N 40°45' W 074°01'1 1.5
2018-Jun-21 20:20N 40°46' W 073°60'0 0.0
2018-Jun-21 19:57N 40°46' W 073°60'0 0.0
2018-Jun-21 19:21N 40°46' W 073°60'0 0.0
2018-Jun-21 17:57N 40°46' W 073°60'0 0.1
2018-Jun-21 15:36N 40°46' W 074°00'0 0.7
2018-Jun-21 15:30N 40°46' W 074°00'2 4.4
2018-Jun-21 15:00N 40°44' W 074°01'2 4.1
2018-Jun-21 14:31N 40°42' W 074°02'2 4.3
2018-Jun-21 14:01N 40°40' W 074°03'3 6.0
2018-Jun-21 13:31N 40°39' W 074°06'0 0.6
2018-Jun-21 13:00N 40°39' W 074°06'0 0.5
2018-Jun-21 12:30N 40°39' W 074°06'0 0.0
2018-Jun-21 12:00N 40°39' W 074°06'0 0.0
2018-Jun-21 11:30N 40°39' W 074°06'0 0.0
2018-Jun-21 11:00N 40°39' W 074°06'0 0.0
2018-Jun-21 10:30N 40°39' W 074°06'0 0.0
2018-Jun-21 10:00N 40°39' W 074°06'0 0.0
2018-Jun-21 09:30N 40°39' W 074°06'0 0.0
2018-Jun-21 08:52N 40°39' W 074°06'0 0.0
2018-Jun-21 08:25N 40°39' W 074°06'0 0.0
2018-Jun-21 07:56N 40°39' W 074°06'0 0.0
2018-Jun-21 07:30N 40°39' W 074°06'2 4.5
2018-Jun-21 07:00N 40°39' W 074°03'2 4.8
2018-Jun-21 06:31N 40°40' W 074°00'0 0.0
2018-Jun-21 06:01N 40°40' W 074°00'0 0.0
2018-Jun-21 05:30N 40°40' W 074°00'0 0.0
2018-Jun-21 05:00N 40°40' W 074°00'0 0.0
2018-Jun-21 04:30N 40°40' W 074°00'0 0.0
2018-Jun-21 04:00N 40°40' W 074°00'0 0.1
2018-Jun-21 03:30N 40°40' W 074°00'2 3.2
2018-Jun-21 03:01N 40°39' W 074°02'4 7.5
2018-Jun-21 02:30N 40°39' W 074°07'2 4.7
2018-Jun-21 02:00N 40°41' W 074°09'1 0.6
2018-Jun-21 00:34N 40°41' W 074°10'0 0.0
2018-Jun-21 00:28N 40°41' W 074°10'0 0.0
2018-Jun-21 00:01N 40°41' W 074°10'0 0.0
2018-Jun-20 23:30N 40°41' W 074°10'0 0.0
2018-Jun-20 22:43N 40°41' W 074°10'0 0.0
2018-Jun-20 22:26N 40°41' W 074°10'0 0.0
2018-Jun-20 21:09N 40°41' W 074°10'0 0.0
2018-Jun-20 20:56N 40°41' W 074°10'0 0.0
2018-Jun-20 20:30N 40°41' W 074°10'1 2.8
2018-Jun-20 20:00N 40°40' W 074°09'1 2.0
2018-Jun-20 19:31N 40°39' W 074°09'2 4.2
2018-Jun-20 19:00N 40°39' W 074°06'0 0.6
2018-Jun-20 18:30N 40°39' W 074°06'1 1.6
2018-Jun-20 17:54N 40°39' W 074°07'0 0.0
2018-Jun-20 17:30N 40°39' W 074°07'0 0.0
2018-Jun-20 17:00N 40°39' W 074°07'0 0.0
2018-Jun-20 16:30N 40°39' W 074°07'0 0.0
2018-Jun-20 16:00N 40°39' W 074°07'0 0.0
2018-Jun-20 15:30N 40°39' W 074°07'4 7.5
2018-Jun-20 15:00N 40°39' W 074°02'2 3.7
2018-Jun-20 14:30N 40°40' W 074°00'0 0.0
2018-Jun-20 14:00N 40°40' W 074°00'0 0.0
2018-Jun-20 13:30N 40°40' W 074°00'0 0.0
2018-Jun-20 13:00N 40°40' W 074°00'0 0.0
2018-Jun-20 12:30N 40°40' W 074°00'0 0.0
2018-Jun-20 12:00N 40°40' W 074°00'4 7.2
2018-Jun-20 11:30N 40°39' W 074°05'3 6.5
2018-Jun-20 11:00N 40°41' W 074°08'2 4.0
2018-Jun-20 10:30N 40°42' W 074°07'1 2.7
2018-Jun-20 10:00N 40°41' W 074°08'0 0.1
2018-Jun-20 09:30N 40°41' W 074°08'0 0.1
2018-Jun-20 09:00N 40°41' W 074°08'1 1.4
2018-Jun-20 08:30N 40°40' W 074°08'3 6.0
2018-Jun-20 08:00N 40°39' W 074°11'2 0.6
2018-Jun-20 04:01N 40°36' W 074°12'2 8.6
2018-Jun-20 03:45N 40°38' W 074°11'2 8.3
2018-Jun-20 03:28N 40°40' W 074°09'1 2.3
2018-Jun-20 03:00N 40°41' W 074°09'0 0.7
2018-Jun-20 02:30N 40°40' W 074°08'2 3.1
2018-Jun-20 02:00N 40°39' W 074°09'3 5.1
2018-Jun-20 01:30N 40°39' W 074°06'2 4.4
2018-Jun-20 01:00N 40°38' W 074°03'1 1.3
2018-Jun-20 00:30N 40°39' W 074°02'2 3.5
2018-Jun-20 00:00N 40°40' W 074°00'0 0.5
2018-Jun-19 23:30N 40°40' W 074°00'0 0.1
2018-Jun-19 23:00N 40°40' W 074°00'0 0.0
2018-Jun-19 22:30N 40°40' W 074°00'0 0.7
2018-Jun-19 22:00N 40°40' W 074°01'4 9.0
2018-Jun-19 21:31N 40°39' W 074°06'1 1.6
2018-Jun-19 21:00N 40°39' W 074°07'0 0.0
2018-Jun-19 20:30N 40°39' W 074°07'0 0.0
2018-Jun-19 20:00N 40°39' W 074°07'0 0.0
2018-Jun-19 19:30N 40°39' W 074°07'0 0.0
2018-Jun-19 19:00N 40°39' W 074°07'1 1.5
2018-Jun-19 18:31N 40°39' W 074°06'2 3.5
2018-Jun-19 18:00N 40°40' W 074°05'0 0.2
2018-Jun-19 17:30N 40°40' W 074°05'0 0.3
2018-Jun-19 17:00N 40°40' W 074°05'0 0.0
2018-Jun-19 16:30N 40°40' W 074°05'1 2.1
2018-Jun-19 16:00N 40°39' W 074°05'2 4.1
2018-Jun-19 15:30N 40°38' W 074°07'0 0.0
2018-Jun-19 14:58N 40°38' W 074°07'0 0.0
2018-Jun-19 14:30N 40°38' W 074°07'0 0.0
2018-Jun-19 13:57N 40°38' W 074°07'0 0.0
2018-Jun-19 13:30N 40°38' W 074°07'0 0.0
2018-Jun-19 13:00N 40°38' W 074°07'0 0.2
2018-Jun-19 12:29N 40°39' W 074°07'1 1.2
2018-Jun-19 12:01N 40°39' W 074°06'5 9.1
2018-Jun-19 11:30N 40°41' W 074°01'1 1.7
2018-Jun-19 11:00N 40°41' W 074°00'3 6.9
2018-Jun-19 10:30N 40°40' W 074°04'1 1.1
2018-Jun-19 10:00N 40°40' W 074°05'0 0.0
2018-Jun-19 09:30N 40°40' W 074°05'0 0.0
2018-Jun-19 09:00N 40°40' W 074°05'0 0.0
2018-Jun-19 08:30N 40°40' W 074°05'2 3.3
2018-Jun-19 08:00N 40°39' W 074°06'5 9.2
2018-Jun-19 07:30N 40°38' W 074°12'2 0.8
2018-Jun-19 05:24N 40°36' W 074°12'3 6.4
2018-Jun-19 04:57N 40°39' W 074°10'3 7.9
2018-Jun-19 04:30N 40°39' W 074°06'3 5.6
2018-Jun-19 04:01N 40°41' W 074°03'1 1.1
2018-Jun-19 03:30N 40°40' W 074°03'1 1.5
2018-Jun-19 03:00N 40°40' W 074°04'1 2.6
2018-Jun-19 02:30N 40°39' W 074°05'4 8.1
2018-Jun-19 02:01N 40°39' W 074°11'0 0.1
2018-Jun-19 00:52N 40°39' W 074°10'2 6.4
2018-Jun-19 00:30N 40°39' W 074°07'3 6.6
2018-Jun-19 00:00N 40°40' W 074°03'2 4.7
2018-Jun-18 23:30N 40°40' W 074°00'0 0.0
2018-Jun-18 23:01N 40°40' W 074°00'0 0.0
2018-Jun-18 22:30N 40°40' W 074°00'0 0.0
2018-Jun-18 22:00N 40°40' W 074°00'0 0.0
2018-Jun-18 21:30N 40°40' W 074°00'0 0.0
2018-Jun-18 21:00N 40°40' W 074°00'0 0.6
2018-Jun-18 20:30N 40°40' W 074°01'1 2.4
2018-Jun-18 20:00N 40°39' W 074°02'4 7.4
2018-Jun-18 19:30N 40°39' W 074°07'2 4.9
2018-Jun-18 19:01N 40°41' W 074°09'1 1.1
2018-Jun-18 18:31N 40°40' W 074°08'3 5.2
2018-Jun-18 18:00N 40°39' W 074°05'2 4.8
2018-Jun-18 17:30N 40°41' W 074°03'2 4.4
2018-Jun-18 17:01N 40°39' W 074°05'3 5.6
2018-Jun-18 16:30N 40°39' W 074°09'3 6.3
2018-Jun-18 16:00N 40°42' W 074°07'0 0.2
2018-Jun-18 15:30N 40°42' W 074°07'0 0.0
2018-Jun-18 15:00N 40°42' W 074°07'1 2.1
2018-Jun-18 14:28N 40°42' W 074°08'0 0.0
2018-Jun-18 14:00N 40°42' W 074°08'0 0.0
2018-Jun-18 13:31N 40°42' W 074°08'0 0.0
2018-Jun-18 13:00N 40°42' W 074°08'0 0.0
2018-Jun-18 12:30N 40°42' W 074°08'0 0.9
2018-Jun-18 12:00N 40°42' W 074°09'0 0.6
2018-Jun-18 11:30N 40°42' W 074°08'3 6.4
2018-Jun-18 11:00N 40°39' W 074°09'4 7.1
2018-Jun-18 10:30N 40°39' W 074°04'3 5.7
2018-Jun-18 10:00N 40°40' W 074°01'2 3.5
2018-Jun-18 09:30N 40°39' W 074°02'5 9.8
2018-Jun-18 09:01N 40°39' W 074°09'4 8.0
2018-Jun-18 08:30N 40°42' W 074°07'0 0.7
2018-Jun-18 08:00N 40°42' W 074°07'3 5.9
2018-Jun-18 07:30N 40°39' W 074°09'2 3.5
2018-Jun-18 07:00N 40°39' W 074°07'0 0.2
2018-Jun-18 06:30N 40°39' W 074°06'1 0.7
2018-Jun-18 05:23N 40°38' W 074°07'0 0.0
2018-Jun-18 04:52N 40°38' W 074°07'0 0.0
2018-Jun-18 04:30N 40°38' W 074°07'0 0.0
2018-Jun-18 03:55N 40°38' W 074°07'3 6.8
2018-Jun-18 03:30N 40°39' W 074°04'3 5.1
2018-Jun-18 03:00N 40°40' W 074°00'0 0.3
2018-Jun-18 02:31N 40°40' W 074°01'0 0.3
2018-Jun-18 02:00N 40°40' W 074°00'0 0.3
2018-Jun-18 01:30N 40°40' W 074°01'4 7.3
2018-Jun-18 01:00N 40°39' W 074°05'0 0.3
2018-Jun-18 00:30N 40°39' W 074°05'3 6.2
2018-Jun-18 00:00N 40°40' W 074°01'1 1.4
2018-Jun-17 23:30N 40°40' W 074°00'0 0.0
2018-Jun-17 23:00N 40°40' W 074°00'0 0.9
2018-Jun-17 22:30N 40°40' W 074°01'2 3.6
2018-Jun-17 22:01N 40°40' W 074°03'0 0.0
2018-Jun-17 21:30N 40°40' W 074°03'0 0.0
2018-Jun-17 21:00N 40°40' W 074°03'0 0.4
2018-Jun-17 20:30N 40°40' W 074°03'2 3.9
2018-Jun-17 19:59N 40°40' W 074°00'0 0.0
2018-Jun-17 19:30N 40°40' W 074°00'0 0.0
2018-Jun-17 19:00N 40°40' W 074°00'0 0.0
2018-Jun-17 18:30N 40°40' W 074°00'0 0.0
2018-Jun-17 18:00N 40°40' W 074°00'0 0.0
2018-Jun-17 17:29N 40°40' W 074°00'3 5.7
2018-Jun-17 17:01N 40°39' W 074°03'4 7.9
2018-Jun-17 16:29N 40°39' W 074°09'0 0.2
2018-Jun-17 16:00N 40°39' W 074°09'2 3.3
2018-Jun-17 15:29N 40°39' W 074°07'3 7.0
2018-Jun-17 15:00N 40°40' W 074°03'0 0.2
2018-Jun-17 14:24N 40°41' W 074°03'1 1.4
2018-Jun-17 14:01N 40°40' W 074°03'2 4.2
2018-Jun-17 13:27N 40°38' W 074°04'2 4.6
2018-Jun-17 13:00N 40°40' W 074°03'1 1.1
2018-Jun-17 12:30N 40°40' W 074°04'0 0.8
2018-Jun-17 12:00N 40°40' W 074°04'0 0.2
2018-Jun-17 11:30N 40°40' W 074°04'0 0.0
2018-Jun-17 11:00N 40°40' W 074°04'0 0.0
2018-Jun-17 10:31N 40°40' W 074°04'1 1.8
2018-Jun-17 10:00N 40°39' W 074°04'2 4.6
2018-Jun-17 09:31N 40°39' W 074°07'1 1.4
2018-Jun-17 09:00N 40°39' W 074°07'0 0.0
2018-Jun-17 08:30N 40°39' W 074°07'0 0.0
2018-Jun-17 08:01N 40°39' W 074°07'0 0.0
2018-Jun-17 07:30N 40°39' W 074°07'0 0.0
2018-Jun-17 06:59N 40°39' W 074°07'2 4.7
2018-Jun-17 06:30N 40°39' W 074°04'3 6.8
2018-Jun-17 06:01N 40°40' W 074°00'0 0.6
2018-Jun-17 05:31N 40°40' W 074°01'3 6.3
2018-Jun-17 05:01N 40°38' W 074°04'0 0.6
2018-Jun-17 04:31N 40°38' W 074°04'0 0.1
2018-Jun-17 04:00N 40°38' W 074°04'0 0.1
2018-Jun-17 03:30N 40°38' W 074°04'0 0.1
2018-Jun-17 03:00N 40°38' W 074°04'0 0.4
2018-Jun-17 02:30N 40°38' W 074°04'1 2.8
2018-Jun-17 02:00N 40°40' W 074°04'1 1.4
2018-Jun-17 01:30N 40°40' W 074°04'0 0.0
2018-Jun-17 01:01N 40°40' W 074°04'0 0.0
2018-Jun-17 00:30N 40°40' W 074°04'0 0.0
2018-Jun-17 00:00N 40°40' W 074°04'0 0.1
2018-Jun-16 23:31N 40°40' W 074°04'2 4.4
2018-Jun-16 23:00N 40°39' W 074°02'1 1.4
2018-Jun-16 22:30N 40°40' W 074°01'4 8.8
2018-Jun-16 22:00N 40°39' W 074°06'3 5.9
2018-Jun-16 21:30N 40°41' W 074°09'0 0.3
2018-Jun-16 21:00N 40°41' W 074°09'1 2.4
2018-Jun-16 20:30N 40°40' W 074°09'2 3.4
2018-Jun-16 20:01N 40°39' W 074°07'3 6.7
2018-Jun-16 19:31N 40°40' W 074°03'2 4.5
2018-Jun-16 19:01N 40°41' W 074°00'2 4.2
2018-Jun-16 18:30N 40°43' W 074°01'3 0.5
2018-Jun-16 12:25N 40°46' W 074°00'1 1.9
2018-Jun-16 12:00N 40°45' W 074°01'1 1.5
2018-Jun-16 11:30N 40°45' W 074°01'1 1.2
2018-Jun-16 11:00N 40°44' W 074°01'1 1.1
2018-Jun-16 10:31N 40°44' W 074°01'2 4.0
2018-Jun-16 10:01N 40°42' W 074°02'3 5.4
2018-Jun-16 09:31N 40°39' W 074°04'3 5.2
2018-Jun-16 09:00N 40°39' W 074°07'0 0.0
2018-Jun-16 08:30N 40°39' W 074°07'2 4.9
2018-Jun-16 08:00N 40°40' W 074°04'0 0.0
2018-Jun-16 07:30N 40°40' W 074°04'0 0.0
2018-Jun-16 07:00N 40°40' W 074°04'0 0.0
2018-Jun-16 06:30N 40°40' W 074°04'0 0.0
2018-Jun-16 06:00N 40°40' W 074°04'0 0.0
2018-Jun-16 05:30N 40°40' W 074°04'0 0.0
2018-Jun-16 05:00N 40°40' W 074°04'0 0.0
2018-Jun-16 04:31N 40°40' W 074°04'0 0.0
2018-Jun-16 04:00N 40°40' W 074°04'0 0.0
2018-Jun-16 03:30N 40°40' W 074°04'0 0.0
2018-Jun-16 03:00N 40°40' W 074°04'0 0.0
2018-Jun-16 02:30N 40°40' W 074°04'0 0.0
2018-Jun-16 02:00N 40°40' W 074°04'0 0.0
2018-Jun-16 01:31N 40°40' W 074°04'2 3.2
2018-Jun-16 01:00N 40°39' W 074°03'2 3.7
2018-Jun-16 00:30N 40°40' W 074°01'1 2.5
2018-Jun-16 00:01N 40°39' W 074°02'3 6.3
2018-Jun-15 23:31N 40°39' W 074°06'2 4.7
2018-Jun-15 23:00N 40°38' W 074°09'3 5.5
2018-Jun-15 22:30N 40°37' W 074°12'1 0.9
2018-Jun-15 21:08N 40°36' W 074°12'2 8.8
2018-Jun-15 20:55N 40°38' W 074°12'3 7.9
2018-Jun-15 20:30N 40°39' W 074°08'4 7.8
2018-Jun-15 20:00N 40°39' W 074°03'2 4.5
2018-Jun-15 19:30N 40°40' W 074°00'0 0.0
2018-Jun-15 19:00N 40°40' W 074°00'0 0.0
2018-Jun-15 18:31N 40°40' W 074°00'0 0.0
2018-Jun-15 18:00N 40°40' W 074°00'0 0.0
2018-Jun-15 17:30N 40°40' W 074°00'0 0.0
2018-Jun-15 17:00N 40°40' W 074°00'0 0.0
2018-Jun-15 16:30N 40°40' W 074°00'0 0.0
2018-Jun-15 16:00N 40°40' W 074°00'0 0.0
2018-Jun-15 15:30N 40°40' W 074°00'0 0.0
2018-Jun-15 15:00N 40°40' W 074°00'0 0.0
2018-Jun-15 14:30N 40°40' W 074°00'0 0.0
2018-Jun-15 14:00N 40°40' W 074°00'0 0.0
2018-Jun-15 13:30N 40°40' W 074°00'0 0.6
2018-Jun-15 13:00N 40°40' W 074°00'3 5.6
2018-Jun-15 12:30N 40°39' W 074°04'3 6.3
2018-Jun-15 12:00N 40°39' W 074°08'3 5.1
2018-Jun-15 11:30N 40°41' W 074°09'0 0.2
2018-Jun-15 11:00N 40°41' W 074°09'0 0.0
2018-Jun-15 10:27N 40°41' W 074°09'0 0.0
2018-Jun-15 09:56N 40°41' W 074°09'0 0.0
2018-Jun-15 09:30N 40°41' W 074°09'0 0.0
2018-Jun-15 09:00N 40°41' W 074°09'0 0.0
2018-Jun-15 08:30N 40°41' W 074°09'0 0.0
2018-Jun-15 08:00N 40°41' W 074°09'0 0.4
2018-Jun-15 07:30N 40°41' W 074°09'0 0.0
2018-Jun-15 07:00N 40°41' W 074°09'0 0.0
2018-Jun-15 06:29N 40°41' W 074°09'0 0.0
2018-Jun-15 05:53N 40°41' W 074°09'  

Dump ship's entire track history